sensor_id;sensor_type;location;lat;lon;timestamp;pressure;altitude;pressure_sealevel;temperature;humidity
6829;BME280;17930;48.592;8.868;2023-03-13T00:01:30;96295.22;;;8.71;100.00
6829;BME280;17930;48.592;8.868;2023-03-13T00:03:57;96301.53;;;8.60;100.00
6829;BME280;17930;48.592;8.868;2023-03-13T00:06:25;96299.41;;;8.72;100.00
6829;BME280;17930;48.592;8.868;2023-03-13T00:08:53;96293.78;;;8.88;100.00
6829;BME280;17930;48.592;8.868;2023-03-13T00:11:19;96288.50;;;8.98;100.00
6829;BME280;17930;48.592;8.868;2023-03-13T00:13:46;96295.06;;;8.96;100.00
6829;BME280;17930;48.592;8.868;2023-03-13T00:16:14;96295.09;;;8.91;100.00
6829;BME280;17930;48.592;8.868;2023-03-13T00:18:45;96296.25;;;8.75;100.00
6829;BME280;17930;48.592;8.868;2023-03-13T00:21:12;96294.25;;;8.62;100.00
6829;BME280;17930;48.592;8.868;2023-03-13T00:23:39;96300.41;;;8.76;100.00
6829;BME280;17930;48.592;8.868;2023-03-13T00:26:09;96300.34;;;8.86;100.00
6829;BME280;17930;48.592;8.868;2023-03-13T00:28:37;96297.06;;;8.70;100.00
6829;BME280;17930;48.592;8.868;2023-03-13T00:31:05;96309.91;;;8.52;100.00
6829;BME280;17930;48.592;8.868;2023-03-13T00:33:32;96308.19;;;8.38;100.00
6829;BME280;17930;48.592;8.868;2023-03-13T00:36:02;96302.28;;;8.17;100.00
6829;BME280;17930;48.592;8.868;2023-03-13T00:38:30;96294.19;;;8.34;100.00
6829;BME280;17930;48.592;8.868;2023-03-13T00:40:59;96293.25;;;8.58;100.00
6829;BME280;17930;48.592;8.868;2023-03-13T00:43:25;96293.84;;;8.40;100.00
6829;BME280;17930;48.592;8.868;2023-03-13T00:45:52;96287.63;;;8.41;100.00
6829;BME280;17930;48.592;8.868;2023-03-13T00:48:19;96292.81;;;8.41;100.00
6829;BME280;17930;48.592;8.868;2023-03-13T00:50:45;96298.34;;;8.30;100.00
6829;BME280;17930;48.592;8.868;2023-03-13T00:53:13;96293.31;;;8.48;100.00
6829;BME280;17930;48.592;8.868;2023-03-13T00:55:50;96285.00;;;8.46;100.00
6829;BME280;17930;48.592;8.868;2023-03-13T00:58:17;96280.41;;;8.33;100.00
6829;BME280;17930;48.592;8.868;2023-03-13T01:00:44;96277.34;;;8.26;100.00
6829;BME280;17930;48.592;8.868;2023-03-13T01:03:10;96273.19;;;8.25;100.00
6829;BME280;17930;48.592;8.868;2023-03-13T01:05:37;96270.19;;;8.47;100.00
6829;BME280;17930;48.592;8.868;2023-03-13T01:08:04;96266.09;;;8.74;100.00
6829;BME280;17930;48.592;8.868;2023-03-13T01:10:31;96258.47;;;8.82;100.00
6829;BME280;17930;48.592;8.868;2023-03-13T01:12:58;96260.41;;;8.72;100.00
6829;BME280;17930;48.592;8.868;2023-03-13T01:15:25;96260.88;;;8.79;100.00
6829;BME280;17930;48.592;8.868;2023-03-13T01:17:51;96256.72;;;8.78;100.00
6829;BME280;17930;48.592;8.868;2023-03-13T01:20:18;96250.63;;;8.54;100.00
6829;BME280;17930;48.592;8.868;2023-03-13T01:22:45;96256.28;;;8.28;100.00
6829;BME280;17930;48.592;8.868;2023-03-13T01:25:11;96248.75;;;8.26;100.00
6829;BME280;17930;48.592;8.868;2023-03-13T01:27:39;96239.41;;;8.20;100.00
6829;BME280;17930;48.592;8.868;2023-03-13T01:30:07;96236.38;;;8.14;100.00
6829;BME280;17930;48.592;8.868;2023-03-13T01:32:34;96238.38;;;8.21;100.00
6829;BME280;17930;48.592;8.868;2023-03-13T01:35:01;96224.84;;;8.24;100.00
6829;BME280;17930;48.592;8.868;2023-03-13T01:37:28;96227.47;;;8.24;100.00
6829;BME280;17930;48.592;8.868;2023-03-13T01:39:54;96229.44;;;7.89;100.00
6829;BME280;17930;48.592;8.868;2023-03-13T01:42:21;96216.63;;;8.13;100.00
6829;BME280;17930;48.592;8.868;2023-03-13T01:44:51;96206.66;;;8.29;100.00
6829;BME280;17930;48.592;8.868;2023-03-13T01:47:18;96196.28;;;8.29;100.00
6829;BME280;17930;48.592;8.868;2023-03-13T01:49:45;96199.69;;;8.25;100.00
6829;BME280;17930;48.592;8.868;2023-03-13T01:52:16;96194.81;;;8.09;100.00
6829;BME280;17930;48.592;8.868;2023-03-13T01:54:48;96197.28;;;7.85;100.00
6829;BME280;17930;48.592;8.868;2023-03-13T01:57:20;96199.44;;;7.68;100.00
6829;BME280;17930;48.592;8.868;2023-03-13T01:59:53;96204.44;;;7.55;100.00
6829;BME280;17930;48.592;8.868;2023-03-13T02:02:22;96191.75;;;7.44;100.00
6829;BME280;17930;48.592;8.868;2023-03-13T02:04:52;96197.25;;;7.37;100.00
6829;BME280;17930;48.592;8.868;2023-03-13T02:07:25;96191.50;;;7.45;100.00
6829;BME280;17930;48.592;8.868;2023-03-13T02:09:55;96190.50;;;7.36;100.00
6829;BME280;17930;48.592;8.868;2023-03-13T02:12:26;96194.63;;;7.42;100.00
6829;BME280;17930;48.592;8.868;2023-03-13T02:14:57;96186.22;;;7.70;100.00
6829;BME280;17930;48.592;8.868;2023-03-13T02:17:24;96182.91;;;7.55;100.00
6829;BME280;17930;48.592;8.868;2023-03-13T02:19:52;96181.59;;;7.52;100.00
6829;BME280;17930;48.592;8.868;2023-03-13T02:22:23;96184.69;;;7.59;100.00
6829;BME280;17930;48.592;8.868;2023-03-13T02:24:57;96167.41;;;7.88;100.00
6829;BME280;17930;48.592;8.868;2023-03-13T02:27:30;96170.47;;;8.00;100.00
6829;BME280;17930;48.592;8.868;2023-03-13T02:29:57;96156.47;;;7.91;100.00
6829;BME280;17930;48.592;8.868;2023-03-13T02:32:25;96159.06;;;7.96;100.00
6829;BME280;17930;48.592;8.868;2023-03-13T02:34:55;96152.25;;;8.05;100.00
6829;BME280;17930;48.592;8.868;2023-03-13T02:37:24;96137.72;;;8.04;100.00
6829;BME280;17930;48.592;8.868;2023-03-13T02:39:52;96145.75;;;8.07;100.00
6829;BME280;17930;48.592;8.868;2023-03-13T02:42:21;96139.03;;;8.01;100.00
6829;BME280;17930;48.592;8.868;2023-03-13T02:44:50;96141.31;;;8.08;100.00
6829;BME280;17930;48.592;8.868;2023-03-13T02:47:18;96126.75;;;8.12;100.00
6829;BME280;17930;48.592;8.868;2023-03-13T02:49:45;96127.53;;;8.12;100.00
6829;BME280;17930;48.592;8.868;2023-03-13T02:52:17;96128.34;;;8.13;100.00
6829;BME280;17930;48.592;8.868;2023-03-13T02:54:46;96125.03;;;8.35;100.00
6829;BME280;17930;48.592;8.868;2023-03-13T02:57:15;96117.25;;;8.35;100.00
6829;BME280;17930;48.592;8.868;2023-03-13T02:59:41;96119.78;;;8.40;100.00
6829;BME280;17930;48.592;8.868;2023-03-13T03:02:09;96109.38;;;8.40;100.00
6829;BME280;17930;48.592;8.868;2023-03-13T03:04:36;96101.94;;;8.62;100.00
6829;BME280;17930;48.592;8.868;2023-03-13T03:07:03;96089.66;;;8.68;100.00
6829;BME280;17930;48.592;8.868;2023-03-13T03:09:29;96083.56;;;8.77;100.00
6829;BME280;17930;48.592;8.868;2023-03-13T03:11:56;96085.78;;;8.65;100.00
6829;BME280;17930;48.592;8.868;2023-03-13T03:14:22;96074.16;;;8.58;100.00
6829;BME280;17930;48.592;8.868;2023-03-13T03:16:49;96061.91;;;8.63;100.00
6829;BME280;17930;48.592;8.868;2023-03-13T03:19:17;96059.44;;;8.48;100.00
6829;BME280;17930;48.592;8.868;2023-03-13T03:21:44;96058.13;;;8.74;100.00
6829;BME280;17930;48.592;8.868;2023-03-13T03:24:10;96063.94;;;9.13;100.00
6829;BME280;17930;48.592;8.868;2023-03-13T03:26:37;96062.84;;;9.55;100.00
6829;BME280;17930;48.592;8.868;2023-03-13T03:29:04;96047.63;;;10.30;100.00
6829;BME280;17930;48.592;8.868;2023-03-13T03:31:32;96049.59;;;10.52;100.00
6829;BME280;17930;48.592;8.868;2023-03-13T03:33:59;96051.72;;;10.63;100.00
6829;BME280;17930;48.592;8.868;2023-03-13T03:36:27;96046.91;;;10.83;100.00
6829;BME280;17930;48.592;8.868;2023-03-13T03:38:54;96048.47;;;10.98;100.00
6829;BME280;17930;48.592;8.868;2023-03-13T03:41:21;96038.59;;;11.08;100.00
6829;BME280;17930;48.592;8.868;2023-03-13T03:43:48;96039.63;;;11.07;100.00
6829;BME280;17930;48.592;8.868;2023-03-13T03:46:14;96044.47;;;11.14;100.00
6829;BME280;17930;48.592;8.868;2023-03-13T03:48:41;96035.38;;;11.11;100.00
6829;BME280;17930;48.592;8.868;2023-03-13T03:51:08;96032.31;;;11.09;100.00
6829;BME280;17930;48.592;8.868;2023-03-13T03:53:36;96042.16;;;10.99;100.00
6829;BME280;17930;48.592;8.868;2023-03-13T03:56:04;96051.16;;;10.93;100.00
6829;BME280;17930;48.592;8.868;2023-03-13T03:58:31;96050.69;;;10.91;100.00
6829;BME280;17930;48.592;8.868;2023-03-13T04:00:57;96058.69;;;10.94;100.00
6829;BME280;17930;48.592;8.868;2023-03-13T04:03:24;96048.94;;;11.00;100.00
6829;BME280;17930;48.592;8.868;2023-03-13T04:05:51;96048.16;;;10.99;100.00
6829;BME280;17930;48.592;8.868;2023-03-13T04:08:17;96051.81;;;10.98;100.00
6829;BME280;17930;48.592;8.868;2023-03-13T04:10:45;96044.41;;;10.92;100.00
6829;BME280;17930;48.592;8.868;2023-03-13T04:13:12;96046.31;;;11.00;100.00
6829;BME280;17930;48.592;8.868;2023-03-13T04:15:39;96035.88;;;11.00;100.00
6829;BME280;17930;48.592;8.868;2023-03-13T04:18:06;96032.00;;;10.97;100.00
6829;BME280;17930;48.592;8.868;2023-03-13T04:20:32;96048.25;;;10.94;100.00
6829;BME280;17930;48.592;8.868;2023-03-13T04:22:59;96041.69;;;10.97;100.00
6829;BME280;17930;48.592;8.868;2023-03-13T04:25:26;96042.75;;;10.96;100.00
6829;BME280;17930;48.592;8.868;2023-03-13T04:27:54;96038.50;;;11.00;100.00
6829;BME280;17930;48.592;8.868;2023-03-13T04:30:20;96039.47;;;11.04;100.00
6829;BME280;17930;48.592;8.868;2023-03-13T04:32:47;96032.00;;;11.11;100.00
6829;BME280;17930;48.592;8.868;2023-03-13T04:35:15;96027.97;;;11.05;100.00
6829;BME280;17930;48.592;8.868;2023-03-13T04:37:42;96020.81;;;11.10;100.00
6829;BME280;17930;48.592;8.868;2023-03-13T04:40:10;96024.47;;;11.09;100.00
6829;BME280;17930;48.592;8.868;2023-03-13T04:42:36;96030.47;;;11.10;100.00
6829;BME280;17930;48.592;8.868;2023-03-13T04:45:06;96016.34;;;11.11;100.00
6829;BME280;17930;48.592;8.868;2023-03-13T04:47:34;96032.84;;;11.20;100.00
6829;BME280;17930;48.592;8.868;2023-03-13T04:50:01;96015.84;;;11.22;100.00
6829;BME280;17930;48.592;8.868;2023-03-13T04:52:27;96007.56;;;11.20;100.00
6829;BME280;17930;48.592;8.868;2023-03-13T04:54:54;96015.56;;;11.23;100.00
6829;BME280;17930;48.592;8.868;2023-03-13T04:57:20;96008.91;;;11.18;100.00
6829;BME280;17930;48.592;8.868;2023-03-13T04:59:47;96027.94;;;11.18;100.00
6829;BME280;17930;48.592;8.868;2023-03-13T05:02:15;96004.81;;;11.25;100.00
6829;BME280;17930;48.592;8.868;2023-03-13T05:04:41;96004.94;;;11.20;100.00
6829;BME280;17930;48.592;8.868;2023-03-13T05:07:08;96004.53;;;11.26;100.00
6829;BME280;17930;48.592;8.868;2023-03-13T05:09:35;96011.31;;;11.27;100.00
6829;BME280;17930;48.592;8.868;2023-03-13T05:12:01;96009.75;;;11.26;100.00
6829;BME280;17930;48.592;8.868;2023-03-13T05:14:28;96007.59;;;11.28;100.00
6829;BME280;17930;48.592;8.868;2023-03-13T05:16:54;96018.91;;;11.37;100.00
6829;BME280;17930;48.592;8.868;2023-03-13T05:19:22;96021.31;;;11.47;100.00
6829;BME280;17930;48.592;8.868;2023-03-13T05:21:49;96017.66;;;11.48;100.00
6829;BME280;17930;48.592;8.868;2023-03-13T05:24:15;96004.69;;;11.43;100.00
6829;BME280;17930;48.592;8.868;2023-03-13T05:26:42;96013.97;;;11.49;100.00
6829;BME280;17930;48.592;8.868;2023-03-13T05:29:09;96015.41;;;11.55;100.00
6829;BME280;17930;48.592;8.868;2023-03-13T05:31:35;96000.69;;;11.59;100.00
6829;BME280;17930;48.592;8.868;2023-03-13T05:34:02;96004.84;;;11.60;100.00
6829;BME280;17930;48.592;8.868;2023-03-13T05:36:30;95999.50;;;11.65;100.00
6829;BME280;17930;48.592;8.868;2023-03-13T05:38:56;96006.16;;;11.71;100.00
6829;BME280;17930;48.592;8.868;2023-03-13T05:41:23;96002.47;;;11.72;100.00
6829;BME280;17930;48.592;8.868;2023-03-13T05:43:49;95996.31;;;11.68;100.00
6829;BME280;17930;48.592;8.868;2023-03-13T05:46:16;96004.91;;;11.69;100.00
6829;BME280;17930;48.592;8.868;2023-03-13T05:48:43;95994.41;;;11.60;100.00
6829;BME280;17930;48.592;8.868;2023-03-13T05:51:11;95991.03;;;11.46;100.00
6829;BME280;17930;48.592;8.868;2023-03-13T05:53:39;95997.13;;;11.42;100.00
6829;BME280;17930;48.592;8.868;2023-03-13T05:56:06;95989.41;;;11.50;100.00
6829;BME280;17930;48.592;8.868;2023-03-13T05:58:32;95999.25;;;11.53;100.00
6829;BME280;17930;48.592;8.868;2023-03-13T06:01:05;96000.81;;;11.54;100.00
6829;BME280;17930;48.592;8.868;2023-03-13T06:03:31;95988.41;;;11.60;100.00
6829;BME280;17930;48.592;8.868;2023-03-13T06:05:58;95986.97;;;11.54;100.00
6829;BME280;17930;48.592;8.868;2023-03-13T06:08:25;95980.50;;;11.51;100.00
6829;BME280;17930;48.592;8.868;2023-03-13T06:10:53;95979.81;;;11.46;100.00
6829;BME280;17930;48.592;8.868;2023-03-13T06:13:20;95968.22;;;11.52;100.00
6829;BME280;17930;48.592;8.868;2023-03-13T06:15:50;95983.19;;;11.46;100.00
6829;BME280;17930;48.592;8.868;2023-03-13T06:18:17;95984.25;;;11.45;100.00
6829;BME280;17930;48.592;8.868;2023-03-13T06:20:43;95998.31;;;11.49;100.00
6829;BME280;17930;48.592;8.868;2023-03-13T06:23:10;95993.88;;;11.50;100.00
6829;BME280;17930;48.592;8.868;2023-03-13T06:25:37;95991.50;;;11.62;100.00
6829;BME280;17930;48.592;8.868;2023-03-13T06:28:05;95997.84;;;11.69;100.00
6829;BME280;17930;48.592;8.868;2023-03-13T06:30:31;95990.38;;;11.76;100.00
6829;BME280;17930;48.592;8.868;2023-03-13T06:32:58;95991.31;;;11.80;100.00
6829;BME280;17930;48.592;8.868;2023-03-13T06:35:25;96009.97;;;11.87;100.00
6829;BME280;17930;48.592;8.868;2023-03-13T06:37:52;96002.59;;;11.89;100.00
6829;BME280;17930;48.592;8.868;2023-03-13T06:40:19;96006.00;;;11.89;100.00
6829;BME280;17930;48.592;8.868;2023-03-13T06:42:45;95996.78;;;11.92;100.00
6829;BME280;17930;48.592;8.868;2023-03-13T06:45:13;95990.78;;;11.91;100.00
6829;BME280;17930;48.592;8.868;2023-03-13T06:47:40;95986.31;;;11.92;100.00
6829;BME280;17930;48.592;8.868;2023-03-13T06:50:07;95989.22;;;11.90;100.00
6829;BME280;17930;48.592;8.868;2023-03-13T06:52:34;95995.72;;;11.93;100.00
6829;BME280;17930;48.592;8.868;2023-03-13T06:55:02;95998.50;;;11.96;100.00
6829;BME280;17930;48.592;8.868;2023-03-13T06:57:29;95988.69;;;12.02;100.00
6829;BME280;17930;48.592;8.868;2023-03-13T06:59:56;96000.69;;;12.03;100.00
6829;BME280;17930;48.592;8.868;2023-03-13T07:02:24;95990.88;;;12.08;100.00
6829;BME280;17930;48.592;8.868;2023-03-13T07:04:50;95989.53;;;12.11;100.00
6829;BME280;17930;48.592;8.868;2023-03-13T07:07:17;95988.91;;;12.14;100.00
6829;BME280;17930;48.592;8.868;2023-03-13T07:09:43;95996.47;;;12.15;100.00
6829;BME280;17930;48.592;8.868;2023-03-13T07:12:10;96004.13;;;12.12;100.00
6829;BME280;17930;48.592;8.868;2023-03-13T07:14:37;95989.88;;;12.18;100.00
6829;BME280;17930;48.592;8.868;2023-03-13T07:17:03;96008.03;;;12.23;100.00
6829;BME280;17930;48.592;8.868;2023-03-13T07:19:31;95999.13;;;12.24;100.00
6829;BME280;17930;48.592;8.868;2023-03-13T07:21:58;96008.97;;;12.27;100.00
6829;BME280;17930;48.592;8.868;2023-03-13T07:24:24;96010.88;;;12.34;100.00
6829;BME280;17930;48.592;8.868;2023-03-13T07:26:51;96005.06;;;12.37;100.00
6829;BME280;17930;48.592;8.868;2023-03-13T07:29:18;95994.00;;;12.40;100.00
6829;BME280;17930;48.592;8.868;2023-03-13T07:31:44;95998.34;;;12.53;100.00
6829;BME280;17930;48.592;8.868;2023-03-13T07:34:11;95981.44;;;12.59;100.00
6829;BME280;17930;48.592;8.868;2023-03-13T07:36:39;96001.00;;;12.62;100.00
6829;BME280;17930;48.592;8.868;2023-03-13T07:39:06;95993.13;;;12.53;100.00
6829;BME280;17930;48.592;8.868;2023-03-13T07:41:33;95990.34;;;12.58;100.00
6829;BME280;17930;48.592;8.868;2023-03-13T07:44:00;95983.75;;;12.61;100.00
6829;BME280;17930;48.592;8.868;2023-03-13T07:46:26;95963.72;;;12.56;100.00
6829;BME280;17930;48.592;8.868;2023-03-13T07:48:53;95964.53;;;12.65;100.00
6829;BME280;17930;48.592;8.868;2023-03-13T07:51:21;95969.75;;;12.65;100.00
6829;BME280;17930;48.592;8.868;2023-03-13T07:53:50;95963.91;;;12.68;100.00
6829;BME280;17930;48.592;8.868;2023-03-13T07:56:19;95961.78;;;12.70;100.00
6829;BME280;17930;48.592;8.868;2023-03-13T07:58:50;95945.63;;;12.77;100.00
6829;BME280;17930;48.592;8.868;2023-03-13T08:01:18;95958.59;;;12.81;100.00
6829;BME280;17930;48.592;8.868;2023-03-13T08:03:47;95950.56;;;12.78;100.00
6829;BME280;17930;48.592;8.868;2023-03-13T08:06:16;95953.53;;;12.85;100.00
6829;BME280;17930;48.592;8.868;2023-03-13T08:08:48;95933.06;;;12.87;100.00
6829;BME280;17930;48.592;8.868;2023-03-13T08:11:18;95916.75;;;12.98;100.00
6829;BME280;17930;48.592;8.868;2023-03-13T08:13:47;95924.63;;;13.07;100.00
6829;BME280;17930;48.592;8.868;2023-03-13T08:16:15;95911.25;;;13.17;100.00
6829;BME280;17930;48.592;8.868;2023-03-13T08:18:44;95916.47;;;13.25;100.00
6829;BME280;17930;48.592;8.868;2023-03-13T08:21:15;95918.47;;;13.20;100.00
6829;BME280;17930;48.592;8.868;2023-03-13T08:23:43;95920.94;;;13.25;100.00
6829;BME280;17930;48.592;8.868;2023-03-13T08:26:19;95929.56;;;13.33;100.00
6829;BME280;17930;48.592;8.868;2023-03-13T08:28:51;95928.34;;;13.31;100.00
6829;BME280;17930;48.592;8.868;2023-03-13T08:31:20;95936.34;;;13.34;100.00
6829;BME280;17930;48.592;8.868;2023-03-13T08:33:47;95932.94;;;13.42;100.00
6829;BME280;17930;48.592;8.868;2023-03-13T08:36:16;95930.19;;;13.31;100.00
6829;BME280;17930;48.592;8.868;2023-03-13T08:38:44;95928.03;;;13.32;100.00
6829;BME280;17930;48.592;8.868;2023-03-13T08:41:15;95937.13;;;13.52;100.00
6829;BME280;17930;48.592;8.868;2023-03-13T08:43:47;95924.78;;;13.52;100.00
6829;BME280;17930;48.592;8.868;2023-03-13T08:46:14;95940.19;;;13.71;100.00
6829;BME280;17930;48.592;8.868;2023-03-13T08:48:41;95932.63;;;13.69;100.00
6829;BME280;17930;48.592;8.868;2023-03-13T08:51:10;95942.94;;;13.74;100.00
6829;BME280;17930;48.592;8.868;2023-03-13T08:53:38;95950.94;;;13.94;100.00
6829;BME280;17930;48.592;8.868;2023-03-13T08:56:07;95944.31;;;13.97;100.00
6829;BME280;17930;48.592;8.868;2023-03-13T08:58:33;95943.81;;;13.95;100.00
6829;BME280;17930;48.592;8.868;2023-03-13T09:01:03;95947.06;;;13.92;100.00
6829;BME280;17930;48.592;8.868;2023-03-13T09:03:31;95955.56;;;13.89;100.00
6829;BME280;17930;48.592;8.868;2023-03-13T09:05:58;95957.88;;;13.99;100.00
6829;BME280;17930;48.592;8.868;2023-03-13T09:08:26;95961.84;;;14.05;100.00
6829;BME280;17930;48.592;8.868;2023-03-13T09:10:54;95963.72;;;13.96;100.00
6829;BME280;17930;48.592;8.868;2023-03-13T09:13:21;95959.75;;;14.07;100.00
6829;BME280;17930;48.592;8.868;2023-03-13T09:15:53;95955.53;;;14.14;100.00
6829;BME280;17930;48.592;8.868;2023-03-13T09:18:21;95965.25;;;14.14;100.00
6829;BME280;17930;48.592;8.868;2023-03-13T09:20:48;95962.03;;;14.54;100.00
6829;BME280;17930;48.592;8.868;2023-03-13T09:23:15;95964.09;;;15.06;100.00
6829;BME280;17930;48.592;8.868;2023-03-13T09:25:42;95959.56;;;15.15;100.00
6829;BME280;17930;48.592;8.868;2023-03-13T09:28:09;95955.59;;;15.09;100.00
6829;BME280;17930;48.592;8.868;2023-03-13T09:30:39;95962.59;;;14.96;100.00
6829;BME280;17930;48.592;8.868;2023-03-13T09:33:06;95966.88;;;15.30;100.00
6829;BME280;17930;48.592;8.868;2023-03-13T09:35:37;95951.38;;;15.57;100.00
6829;BME280;17930;48.592;8.868;2023-03-13T09:38:03;95961.50;;;15.67;100.00
6829;BME280;17930;48.592;8.868;2023-03-13T09:40:36;95955.13;;;15.88;100.00
6829;BME280;17930;48.592;8.868;2023-03-13T09:43:04;95951.88;;;17.30;100.00
6829;BME280;17930;48.592;8.868;2023-03-13T09:45:40;95972.09;;;17.77;100.00
6829;BME280;17930;48.592;8.868;2023-03-13T09:48:13;95965.50;;;17.08;100.00
6829;BME280;17930;48.592;8.868;2023-03-13T09:50:53;95961.47;;;16.51;100.00
6829;BME280;17930;48.592;8.868;2023-03-13T09:53:29;95951.94;;;16.15;100.00
6829;BME280;17930;48.592;8.868;2023-03-13T09:55:57;95948.28;;;16.51;100.00
6829;BME280;17930;48.592;8.868;2023-03-13T09:58:26;95933.16;;;16.60;100.00
6829;BME280;17930;48.592;8.868;2023-03-13T10:00:56;95941.38;;;16.59;100.00
6829;BME280;17930;48.592;8.868;2023-03-13T10:03:30;95934.97;;;17.19;100.00
6829;BME280;17930;48.592;8.868;2023-03-13T10:06:13;95923.03;;;18.03;100.00
6829;BME280;17930;48.592;8.868;2023-03-13T10:08:41;95923.94;;;19.34;100.00
6829;BME280;17930;48.592;8.868;2023-03-13T10:11:10;95916.53;;;20.18;100.00
6829;BME280;17930;48.592;8.868;2023-03-13T10:13:45;95902.34;;;19.51;100.00
6829;BME280;17930;48.592;8.868;2023-03-13T10:16:17;95899.84;;;19.76;100.00
6829;BME280;17930;48.592;8.868;2023-03-13T10:18:48;95901.22;;;19.52;100.00
6829;BME280;17930;48.592;8.868;2023-03-13T10:21:23;95898.44;;;19.45;100.00
6829;BME280;17930;48.592;8.868;2023-03-13T10:24:00;95899.19;;;19.26;100.00
6829;BME280;17930;48.592;8.868;2023-03-13T10:26:33;95878.97;;;19.52;100.00
6829;BME280;17930;48.592;8.868;2023-03-13T10:29:04;95893.63;;;18.48;100.00
6829;BME280;17930;48.592;8.868;2023-03-13T10:31:38;95896.69;;;18.19;100.00
6829;BME280;17930;48.592;8.868;2023-03-13T10:34:06;95887.72;;;18.39;100.00
6829;BME280;17930;48.592;8.868;2023-03-13T10:36:41;95889.19;;;18.36;100.00
6829;BME280;17930;48.592;8.868;2023-03-13T10:39:18;95880.28;;;17.83;100.00
6829;BME280;17930;48.592;8.868;2023-03-13T10:41:45;95863.56;;;17.79;100.00
6829;BME280;17930;48.592;8.868;2023-03-13T10:44:16;95859.66;;;18.03;100.00
6829;BME280;17930;48.592;8.868;2023-03-13T10:46:45;95862.41;;;17.92;100.00
6829;BME280;17930;48.592;8.868;2023-03-13T10:49:14;95858.78;;;17.69;100.00
6829;BME280;17930;48.592;8.868;2023-03-13T10:51:46;95851.94;;;17.52;100.00
6829;BME280;17930;48.592;8.868;2023-03-13T10:54:15;95839.34;;;17.46;100.00
6829;BME280;17930;48.592;8.868;2023-03-13T10:56:48;95826.53;;;18.18;100.00
6829;BME280;17930;48.592;8.868;2023-03-13T10:59:21;95815.47;;;18.81;100.00
6829;BME280;17930;48.592;8.868;2023-03-13T11:01:49;95815.25;;;19.83;100.00
6829;BME280;17930;48.592;8.868;2023-03-13T11:04:28;95808.91;;;21.13;100.00
6829;BME280;17930;48.592;8.868;2023-03-13T11:07:01;95806.03;;;21.25;100.00
6829;BME280;17930;48.592;8.868;2023-03-13T11:09:28;95814.88;;;20.26;100.00
6829;BME280;17930;48.592;8.868;2023-03-13T11:12:01;95814.94;;;21.10;100.00
6829;BME280;17930;48.592;8.868;2023-03-13T11:14:29;95790.72;;;21.80;100.00
6829;BME280;17930;48.592;8.868;2023-03-13T11:17:00;95780.91;;;22.84;100.00
6829;BME280;17930;48.592;8.868;2023-03-13T11:19:49;95771.63;;;22.61;100.00
6829;BME280;17930;48.592;8.868;2023-03-13T11:22:26;95760.09;;;22.97;97.82
6829;BME280;17930;48.592;8.868;2023-03-13T11:25:03;95733.97;;;22.49;94.97
6829;BME280;17930;48.592;8.868;2023-03-13T11:27:37;95747.94;;;22.39;95.97
6829;BME280;17930;48.592;8.868;2023-03-13T11:30:17;95732.47;;;23.43;92.22
6829;BME280;17930;48.592;8.868;2023-03-13T11:32:51;95722.47;;;23.05;91.57
6829;BME280;17930;48.592;8.868;2023-03-13T11:35:34;95725.66;;;23.59;89.83
6829;BME280;17930;48.592;8.868;2023-03-13T11:38:07;95717.28;;;23.64;88.14
6829;BME280;17930;48.592;8.868;2023-03-13T11:40:38;95716.88;;;23.38;88.56
6829;BME280;17930;48.592;8.868;2023-03-13T11:43:21;95701.31;;;25.32;87.38
6829;BME280;17930;48.592;8.868;2023-03-13T11:46:09;95690.94;;;24.67;82.17
6829;BME280;17930;48.592;8.868;2023-03-13T11:49:15;95692.19;;;23.89;82.25
6829;BME280;17930;48.592;8.868;2023-03-13T11:51:53;95676.19;;;23.75;84.46
6829;BME280;17930;48.592;8.868;2023-03-13T11:54:36;95658.63;;;23.19;83.00
6829;BME280;17930;48.592;8.868;2023-03-13T11:57:12;95659.44;;;23.58;80.67
6829;BME280;17930;48.592;8.868;2023-03-13T11:59:44;95659.06;;;23.59;82.94
6829;BME280;17930;48.592;8.868;2023-03-13T12:02:19;95649.41;;;22.92;82.60
6829;BME280;17930;48.592;8.868;2023-03-13T12:04:52;95640.75;;;23.19;83.08
6829;BME280;17930;48.592;8.868;2023-03-13T12:07:25;95645.25;;;22.91;82.45
6829;BME280;17930;48.592;8.868;2023-03-13T12:09:58;95632.78;;;23.23;81.35
6829;BME280;17930;48.592;8.868;2023-03-13T12:12:36;95632.00;;;23.12;81.80
6829;BME280;17930;48.592;8.868;2023-03-13T12:15:16;95638.03;;;22.95;81.69
6829;BME280;17930;48.592;8.868;2023-03-13T12:17:48;95631.09;;;22.63;83.48
6829;BME280;17930;48.592;8.868;2023-03-13T12:20:21;95618.34;;;23.38;80.00
6829;BME280;17930;48.592;8.868;2023-03-13T12:22:55;95604.66;;;23.46;79.13
6829;BME280;17930;48.592;8.868;2023-03-13T12:25:27;95599.34;;;23.77;79.01
6829;BME280;17930;48.592;8.868;2023-03-13T12:28:20;95588.69;;;23.71;79.29
6829;BME280;17930;48.592;8.868;2023-03-13T12:30:52;95583.34;;;23.01;79.97
6829;BME280;17930;48.592;8.868;2023-03-13T12:33:28;95565.03;;;23.93;78.93
6829;BME280;17930;48.592;8.868;2023-03-13T12:36:01;95569.63;;;23.75;77.51
6829;BME280;17930;48.592;8.868;2023-03-13T12:38:38;95568.13;;;23.19;79.27
6829;BME280;17930;48.592;8.868;2023-03-13T12:41:18;95555.09;;;24.11;75.98
6829;BME280;17930;48.592;8.868;2023-03-13T12:43:47;95547.53;;;23.78;75.71
6829;BME280;17930;48.592;8.868;2023-03-13T12:46:27;95554.44;;;23.03;76.79
6829;BME280;17930;48.592;8.868;2023-03-13T12:49:31;95532.34;;;23.69;76.62
6829;BME280;17930;48.592;8.868;2023-03-13T12:52:16;95512.78;;;24.20;75.89
6829;BME280;17930;48.592;8.868;2023-03-13T12:58:22;95504.19;;;23.71;75.46
6829;BME280;17930;48.592;8.868;2023-03-13T13:00:55;95509.53;;;23.50;74.22
6829;BME280;17930;48.592;8.868;2023-03-13T13:03:31;95503.50;;;23.01;75.74
6829;BME280;17930;48.592;8.868;2023-03-13T13:06:04;95489.34;;;23.53;76.13
6829;BME280;17930;48.592;8.868;2023-03-13T13:08:35;95476.03;;;23.67;75.40
6829;BME280;17930;48.592;8.868;2023-03-13T13:11:34;95461.94;;;23.56;74.23
6829;BME280;17930;48.592;8.868;2023-03-13T13:17:14;95455.91;;;23.34;76.92
6829;BME280;17930;48.592;8.868;2023-03-13T13:19:44;95468.50;;;22.78;76.12
6829;BME280;17930;48.592;8.868;2023-03-13T13:22:46;95444.53;;;22.58;76.69
6829;BME280;17930;48.592;8.868;2023-03-13T13:25:32;95443.25;;;21.93;78.97